createdAt,value
2023-03-03T00:03:29.061Z,4.17
2023-03-03T00:08:33.064Z,4.47
2023-03-03T00:13:44.230Z,3.80
2023-03-03T00:18:48.836Z,3.43
2023-03-03T00:23:51.674Z,3.90
2023-03-03T00:28:56.905Z,3.40
2023-03-03T00:34:06.246Z,3.93
2023-03-03T00:39:19.770Z,3.87
2023-03-03T00:44:42.453Z,3.30
2023-03-03T00:49:46.708Z,3.17
2023-03-03T00:54:49.638Z,3.53
2023-03-03T00:59:52.499Z,3.20
2023-03-03T01:04:57.566Z,2.50
2023-03-03T01:10:00.436Z,2.80
2023-03-03T01:15:03.358Z,2.90
2023-03-03T01:20:09.130Z,3.13
2023-03-03T01:25:12.052Z,3.07
2023-03-03T01:30:15.707Z,3.10
2023-03-03T01:35:20.405Z,2.83
2023-03-03T01:40:25.704Z,2.63
2023-03-03T01:45:29.913Z,2.50
2023-03-03T01:50:43.517Z,2.67
2023-03-03T01:55:47.484Z,2.30
2023-03-03T02:00:52.358Z,1.60
2023-03-03T02:05:59.200Z,2.10
2023-03-03T02:11:02.336Z,1.23
2023-03-03T02:16:05.698Z,1.40
2023-03-03T02:21:12.453Z,1.60
2023-03-03T02:26:18.730Z,1.30
2023-03-03T02:31:24.072Z,1.47
2023-03-03T02:36:29.606Z,1.47
2023-03-03T02:41:36.063Z,1.70
2023-03-03T02:46:42.077Z,0.97
2023-03-03T02:51:45.407Z,1.33
2023-03-03T02:56:50.147Z,1.47
2023-03-03T03:01:54.346Z,1.17
2023-03-03T03:06:57.659Z,1.37
2023-03-03T03:12:05.227Z,1.60
2023-03-03T03:17:11.638Z,1.13
2023-03-03T03:22:15.184Z,1.33
2023-03-03T03:27:20.395Z,2.23
2023-03-03T03:32:24.690Z,1.70
2023-03-03T03:37:27.824Z,1.10
2023-03-03T03:42:32.270Z,1.33
2023-03-03T03:47:35.277Z,1.00
2023-03-03T03:52:38.610Z,1.17
2023-03-03T03:57:43.249Z,1.00
2023-03-03T04:02:46.329Z,1.00
2023-03-03T04:07:51.637Z,1.20
2023-03-03T04:12:56.946Z,1.00
2023-03-03T04:18:00.681Z,1.67
2023-03-03T04:23:04.277Z,2.80
2023-03-03T04:28:10.674Z,1.43
2023-03-03T04:33:14.302Z,1.67
2023-03-03T04:38:17.770Z,1.30
2023-03-03T04:43:23.679Z,1.47
2023-03-03T04:48:26.715Z,1.53
2023-03-03T04:53:29.944Z,2.13
2023-03-03T04:58:34.403Z,1.80
2023-03-03T05:03:38.033Z,1.90
2023-03-03T05:08:43.174Z,2.07
2023-03-03T05:13:47.516Z,2.30
2023-03-03T05:18:50.343Z,1.90
2023-03-03T05:23:53.660Z,2.47
2023-03-03T05:28:57.900Z,2.70
2023-03-03T05:34:00.720Z,2.20
2023-03-03T05:39:03.691Z,2.63
2023-03-03T05:44:08.139Z,2.27
2023-03-03T05:49:11.115Z,2.10
2023-03-03T05:54:14.077Z,2.90
2023-03-03T05:59:19.127Z,2.50
2023-03-03T06:04:22.197Z,1.87
2023-03-03T06:09:26.300Z,2.07
2023-03-03T06:14:30.597Z,1.87
2023-03-03T06:19:33.548Z,2.70
2023-03-03T06:24:36.494Z,2.40
2023-03-03T06:29:40.790Z,3.70
2023-03-03T06:34:43.723Z,3.27
2023-03-03T06:39:46.708Z,2.33
2023-03-03T06:44:50.952Z,2.70
2023-03-03T06:49:53.934Z,2.53
2023-03-03T06:54:59.539Z,3.23
2023-03-03T07:00:16.764Z,3.30
2023-03-03T07:05:20.211Z,2.93
2023-03-03T07:10:26.136Z,3.27
2023-03-03T07:15:35.391Z,3.47
2023-03-03T07:20:41.081Z,3.33
2023-03-03T07:25:46.736Z,3.00
2023-03-03T07:30:51.167Z,3.50
2023-03-03T07:35:55.228Z,2.90
2023-03-03T07:40:59.969Z,3.47
2023-03-03T07:46:24.245Z,3.90
2023-03-03T07:51:29.402Z,3.00
2023-03-03T07:56:36.057Z,4.07
2023-03-03T08:01:42.733Z,2.90
2023-03-03T08:06:50.714Z,3.83
2023-03-03T08:11:56.484Z,3.77
2023-03-03T08:17:01.992Z,2.93
2023-03-03T08:22:13.866Z,3.50
2023-03-03T08:27:16.814Z,2.60
2023-03-03T08:32:21.322Z,2.27
2023-03-03T08:37:24.301Z,1.47
2023-03-03T08:42:30.062Z,1.90
2023-03-03T08:47:34.427Z,1.63
2023-03-03T08:52:37.345Z,1.53
2023-03-03T08:57:40.596Z,2.03
2023-03-03T09:02:44.923Z,1.67
2023-03-03T09:07:48.986Z,1.53
2023-03-03T09:12:51.874Z,1.80
2023-03-03T09:17:56.711Z,1.80
2023-03-03T09:22:59.838Z,1.40
2023-03-03T09:28:03.269Z,2.60
2023-03-03T09:33:25.078Z,1.20
2023-03-03T09:38:30.661Z,1.20
2023-03-03T09:43:37.606Z,1.10
2023-03-03T09:48:50.771Z,1.30
2023-03-03T09:54:05.197Z,1.33
2023-03-03T09:59:21.041Z,0.90
2023-03-03T10:04:56.392Z,1.00
2023-03-03T10:10:07.822Z,0.70
2023-03-03T10:15:19.984Z,1.57
2023-03-03T10:20:52.290Z,0.87
2023-03-03T10:26:04.884Z,0.60
2023-03-03T10:31:17.249Z,0.37
2023-03-03T10:36:36.451Z,0.70
2023-03-03T10:41:48.738Z,0.60
2023-03-03T10:47:18.821Z,0.50
2023-03-03T10:52:34.049Z,0.50
2023-03-03T10:57:42.148Z,0.70
2023-03-03T11:02:54.847Z,0.80
2023-03-03T11:08:03.311Z,0.50
2023-03-03T11:13:13.722Z,0.60
2023-03-03T11:18:30.450Z,0.77
2023-03-03T11:24:05.326Z,3.63
2023-03-03T11:29:17.580Z,0.47
2023-03-03T11:34:34.024Z,0.60
2023-03-03T11:39:38.857Z,1.00
2023-03-03T11:44:44.040Z,0.50
2023-03-03T11:49:51.663Z,0.50
2023-03-03T11:54:58.910Z,0.67
2023-03-03T12:00:08.372Z,0.80
2023-03-03T12:05:28.201Z,0.70
2023-03-03T12:10:36.332Z,0.60
2023-03-03T12:15:42.843Z,0.60
2023-03-03T12:20:51.609Z,1.80
2023-03-03T12:26:01.127Z,1.30
2023-03-03T12:31:14.639Z,0.70
2023-03-03T12:36:26.736Z,0.53
2023-03-03T12:41:37.085Z,0.63
2023-03-03T12:46:46.206Z,0.67
2023-03-03T12:52:05.717Z,0.33
2023-03-03T12:57:17.490Z,0.57
2023-03-03T13:02:54.583Z,0.90
2023-03-03T13:08:06.390Z,0.37
2023-03-03T13:13:14.985Z,0.90
2023-03-03T13:18:29.803Z,0.80
2023-03-03T13:23:39.896Z,0.50
2023-03-03T13:28:52.644Z,0.60
2023-03-03T13:33:57.158Z,0.90
2023-03-03T13:39:05.758Z,0.70
2023-03-03T13:44:13.353Z,0.77
2023-03-03T13:49:26.022Z,0.60
2023-03-03T13:55:02.587Z,1.03
2023-03-03T14:00:17.693Z,0.93
2023-03-03T14:05:27.518Z,1.10
2023-03-03T14:10:33.193Z,0.87
2023-03-03T14:15:45.099Z,0.97
2023-03-03T14:20:50.767Z,0.93
2023-03-03T14:26:00.836Z,1.00
2023-03-03T14:31:17.362Z,0.80
2023-03-03T14:36:30.254Z,1.30
2023-03-03T14:41:40.281Z,2.70
2023-03-03T14:46:45.101Z,1.67
2023-03-03T14:51:50.046Z,1.40
2023-03-03T14:57:07.167Z,0.90
2023-03-03T15:02:38.955Z,0.70
2023-03-03T15:07:41.943Z,1.37
2023-03-03T15:12:44.812Z,0.90
2023-03-03T15:17:58.885Z,1.10
2023-03-03T15:23:13.495Z,1.20
2023-03-03T15:28:27.481Z,1.70
2023-03-03T15:33:34.938Z,1.77
2023-03-03T15:38:45.104Z,1.53
2023-03-03T15:43:57.466Z,1.30
2023-03-03T15:49:15.768Z,1.80
2023-03-03T15:54:30.993Z,1.80
2023-03-03T15:59:58.123Z,1.70
2023-03-03T16:05:08.897Z,1.80
2023-03-03T16:10:20.690Z,2.00
2023-03-03T16:15:38.845Z,1.90
2023-03-03T16:20:47.529Z,1.83
2023-03-03T16:26:09.438Z,2.40
2023-03-03T16:31:18.606Z,1.63
2023-03-03T16:36:29.502Z,1.67
2023-03-03T16:41:41.469Z,1.63
2023-03-03T16:46:47.328Z,1.87
2023-03-03T16:51:54.732Z,2.03
2023-03-03T16:57:05.125Z,1.60
2023-03-03T17:02:20.310Z,2.60
2023-03-03T17:07:38.056Z,2.20
2023-03-03T17:12:53.447Z,2.20
2023-03-03T17:18:02.774Z,1.83
2023-03-03T17:23:20.973Z,2.27
2023-03-03T17:28:33.348Z,4.63
2023-03-03T17:33:44.310Z,2.80
2023-03-03T17:38:58.931Z,2.50
2023-03-03T17:44:05.254Z,1.77
2023-03-03T17:49:35.372Z,1.80
2023-03-03T17:54:54.571Z,1.90
2023-03-03T18:00:05.427Z,3.67
2023-03-03T18:05:53.201Z,2.40
2023-03-03T18:11:23.344Z,1.77
2023-03-03T18:16:37.563Z,2.13
2023-03-03T18:21:45.150Z,1.97
2023-03-03T18:26:50.598Z,2.20
2023-03-03T18:32:23.549Z,2.03
2023-03-03T18:37:40.696Z,2.03
2023-03-03T18:42:45.356Z,3.37
2023-03-03T18:48:16.104Z,2.23
2023-03-03T18:53:23.178Z,1.97
2023-03-03T18:58:34.438Z,3.27
2023-03-03T19:03:38.939Z,5.07
2023-03-03T19:08:51.295Z,2.20
2023-03-03T19:14:15.853Z,2.67
2023-03-03T19:19:20.240Z,4.57
2023-03-03T19:24:33.721Z,1.97
2023-03-03T19:29:58.256Z,2.87
2023-03-03T19:35:10.697Z,2.07
2023-03-03T19:40:20.550Z,1.70
2023-03-03T19:45:35.929Z,2.67
2023-03-03T19:50:46.844Z,4.20
2023-03-03T19:56:00.225Z,1.93
2023-03-03T20:01:08.860Z,2.77
2023-03-03T20:06:25.004Z,2.20
2023-03-03T20:11:38.393Z,2.03
2023-03-03T20:16:44.860Z,2.40
2023-03-03T20:21:53.466Z,2.13
2023-03-03T20:26:58.954Z,2.67
2023-03-03T20:32:11.237Z,2.30
2023-03-03T20:37:17.401Z,3.00
2023-03-03T20:42:29.493Z,2.13
2023-03-03T20:47:40.894Z,2.60
2023-03-03T20:52:53.295Z,3.23
2023-03-03T20:58:01.218Z,2.93
2023-03-03T21:03:12.113Z,3.30
2023-03-03T21:08:14.994Z,1.77
2023-03-03T21:13:29.428Z,1.83
2023-03-03T21:18:33.770Z,1.90
2023-03-03T21:23:36.643Z,2.33
2023-03-03T21:28:39.492Z,2.17
2023-03-03T21:33:49.666Z,2.17
2023-03-03T21:38:54.198Z,1.73
2023-03-03T21:43:57.092Z,2.10
2023-03-03T21:49:01.385Z,2.13
2023-03-03T21:54:04.356Z,2.93
2023-03-03T21:59:07.175Z,1.90
2023-03-03T22:04:11.392Z,1.90
2023-03-03T22:09:14.388Z,1.80
2023-03-03T22:14:17.312Z,2.67
2023-03-03T22:19:21.624Z,1.80
2023-03-03T22:24:24.424Z,2.30
2023-03-03T22:29:27.341Z,1.83
2023-03-03T22:34:31.528Z,1.70
2023-03-03T22:39:34.452Z,1.77
2023-03-03T22:44:37.373Z,2.17
2023-03-03T22:49:41.581Z,5.00
2023-03-03T22:54:44.375Z,1.87
2023-03-03T22:59:47.169Z,2.20
2023-03-03T23:04:57.649Z,2.07
2023-03-03T23:10:00.518Z,1.90
2023-03-03T23:15:04.501Z,1.70
2023-03-03T23:20:10.674Z,2.07
2023-03-03T23:25:13.764Z,1.17
2023-03-03T23:30:19.225Z,2.03
2023-03-03T23:35:23.551Z,1.63
2023-03-03T23:40:26.498Z,1.30
2023-03-03T23:45:29.317Z,1.87
2023-03-03T23:50:37.143Z,1.80
2023-03-03T23:55:39.980Z,1.97
